createdAt,value
2022-10-16T00:00:42.882Z,63.98
2022-10-16T00:03:11.771Z,64.06
2022-10-16T00:05:42.614Z,63.73
2022-10-16T00:08:10.312Z,63.94
2022-10-16T00:10:37.848Z,64.03
2022-10-16T00:13:05.483Z,64.14
2022-10-16T00:15:34.684Z,64.11
2022-10-16T00:18:02.280Z,64.06
2022-10-16T00:20:32.082Z,64.07
2022-10-16T00:22:59.516Z,64.05
2022-10-16T00:25:26.984Z,63.77
2022-10-16T00:27:54.436Z,63.81
2022-10-16T00:30:21.892Z,64.04
2022-10-16T00:32:49.353Z,63.73
2022-10-16T00:35:16.809Z,63.48
2022-10-16T00:37:45.583Z,63.68
2022-10-16T00:40:13.434Z,63.75
2022-10-16T00:42:41.039Z,63.75
2022-10-16T00:45:10.826Z,63.78
2022-10-16T00:47:39.249Z,63.89
2022-10-16T00:50:08.914Z,63.66
2022-10-16T00:52:36.440Z,63.73
2022-10-16T00:55:06.486Z,63.65
2022-10-16T00:57:33.930Z,63.82
2022-10-16T01:00:01.441Z,63.97
2022-10-16T01:02:29.192Z,63.53
2022-10-16T01:04:56.750Z,63.82
2022-10-16T01:07:32.231Z,63.63
2022-10-16T01:10:08.574Z,63.97
2022-10-16T01:12:42.113Z,63.66
2022-10-16T01:15:16.484Z,63.73
2022-10-16T01:17:47.074Z,63.57
2022-10-16T01:20:19.587Z,63.82
2022-10-16T01:22:56.977Z,63.86
2022-10-16T01:25:30.383Z,63.53
2022-10-16T01:27:59.181Z,63.55
2022-10-16T01:30:27.761Z,63.63
2022-10-16T01:32:57.557Z,63.91
2022-10-16T01:35:27.101Z,63.60
2022-10-16T01:37:56.958Z,63.84
2022-10-16T01:40:26.052Z,63.78
2022-10-16T01:42:54.959Z,63.85
2022-10-16T01:45:23.823Z,63.87
2022-10-16T01:47:51.638Z,63.71
2022-10-16T01:50:19.969Z,63.75
2022-10-16T01:52:49.143Z,63.60
2022-10-16T01:55:18.350Z,63.63
2022-10-16T01:57:47.911Z,63.57
2022-10-16T02:00:15.578Z,63.54
2022-10-16T02:02:45.096Z,63.31
2022-10-16T02:05:14.549Z,63.56
2022-10-16T02:07:43.075Z,63.61
2022-10-16T02:10:10.571Z,63.58
2022-10-16T02:12:40.362Z,63.73
2022-10-16T02:15:08.392Z,63.44
2022-10-16T02:17:35.837Z,63.43
2022-10-16T02:20:05.723Z,63.39
2022-10-16T02:22:37.051Z,63.53
2022-10-16T02:25:06.634Z,63.40
2022-10-16T02:27:35.969Z,63.59
2022-10-16T02:30:08.778Z,63.38
2022-10-16T02:32:36.411Z,63.62
2022-10-16T02:35:05.524Z,63.30
2022-10-16T02:37:32.986Z,63.56
2022-10-16T02:40:00.455Z,63.73
2022-10-16T02:42:31.568Z,63.34
2022-10-16T02:44:59.015Z,63.50
2022-10-16T02:47:26.456Z,63.76
2022-10-16T02:49:54.401Z,63.43
2022-10-16T02:52:23.762Z,63.37
2022-10-16T02:54:51.536Z,63.62
2022-10-16T02:57:18.977Z,63.58
2022-10-16T02:59:46.430Z,63.32
2022-10-16T03:02:13.964Z,63.39
2022-10-16T03:04:41.401Z,63.66
2022-10-16T03:07:09.409Z,63.26
2022-10-16T03:09:38.165Z,63.53
2022-10-16T03:12:05.903Z,63.21
2022-10-16T03:14:33.340Z,63.39
2022-10-16T03:17:00.789Z,63.45
2022-10-16T03:19:28.217Z,63.16
2022-10-16T03:21:55.672Z,63.51
2022-10-16T03:24:23.117Z,63.47
2022-10-16T03:26:51.902Z,63.54
2022-10-16T03:29:19.354Z,63.74
2022-10-16T03:31:46.819Z,63.42
2022-10-16T03:34:14.274Z,63.35
2022-10-16T03:36:41.739Z,63.36
2022-10-16T03:39:09.189Z,63.27
2022-10-16T03:41:36.626Z,63.33
2022-10-16T03:44:05.379Z,63.16
2022-10-16T03:46:32.859Z,63.38
2022-10-16T03:49:00.379Z,63.58
2022-10-16T03:51:27.828Z,63.64
2022-10-16T03:53:55.290Z,63.17
2022-10-16T03:56:22.738Z,63.24
2022-10-16T03:58:50.157Z,63.43
2022-10-16T04:01:18.953Z,63.44
2022-10-16T04:03:46.389Z,63.56
2022-10-16T04:06:13.843Z,63.48
2022-10-16T04:08:41.284Z,63.37
2022-10-16T04:11:08.739Z,63.28
2022-10-16T04:13:36.210Z,63.37
2022-10-16T04:16:03.721Z,63.28
2022-10-16T04:18:32.535Z,63.49
2022-10-16T04:21:04.433Z,63.20
2022-10-16T04:23:31.890Z,63.39
2022-10-16T04:25:59.376Z,63.41
2022-10-16T04:28:26.870Z,62.97
2022-10-16T04:30:54.392Z,63.34
2022-10-16T04:33:21.830Z,63.11
2022-10-16T04:35:50.907Z,63.24
2022-10-16T04:38:18.357Z,63.28
2022-10-16T04:40:45.793Z,63.11
2022-10-16T04:43:13.273Z,63.22
2022-10-16T04:45:40.727Z,63.29
2022-10-16T04:48:08.170Z,63.08
2022-10-16T04:50:35.597Z,63.10
2022-10-16T04:53:04.367Z,63.39
2022-10-16T04:55:31.813Z,63.14
2022-10-16T04:57:59.261Z,63.34
2022-10-16T05:00:26.688Z,63.19
2022-10-16T05:02:54.220Z,63.16
2022-10-16T05:05:21.714Z,63.30
2022-10-16T05:07:50.125Z,63.05
2022-10-16T05:10:18.896Z,63.30
2022-10-16T05:12:46.368Z,63.23
2022-10-16T05:15:13.845Z,63.08
2022-10-16T05:17:44.012Z,63.15
2022-10-16T05:20:12.516Z,63.33
2022-10-16T05:22:39.958Z,63.04
2022-10-16T05:25:08.074Z,63.29
2022-10-16T05:27:36.850Z,63.25
2022-10-16T05:30:06.472Z,63.12
2022-10-16T05:32:36.018Z,62.92
2022-10-16T05:35:03.780Z,63.25
2022-10-16T05:37:31.650Z,62.91
2022-10-16T05:39:59.114Z,63.25
2022-10-16T05:42:26.576Z,63.22
2022-10-16T05:44:55.332Z,63.10
2022-10-16T05:47:22.839Z,63.27
2022-10-16T05:49:50.495Z,63.04
2022-10-16T05:52:18.430Z,63.06
2022-10-16T05:54:45.870Z,63.10
2022-10-16T05:57:13.336Z,63.21
2022-10-16T05:59:40.821Z,62.98
2022-10-16T06:02:10.568Z,63.04
2022-10-16T06:04:38.007Z,63.18
2022-10-16T06:07:05.454Z,63.11
2022-10-16T06:09:32.897Z,63.17
2022-10-16T06:12:00.344Z,63.06
2022-10-16T06:14:27.944Z,62.93
2022-10-16T06:16:55.402Z,63.26
2022-10-16T06:19:24.800Z,63.30
2022-10-16T06:21:52.265Z,63.23
2022-10-16T06:24:19.707Z,63.24
2022-10-16T06:26:47.195Z,63.25
2022-10-16T06:29:14.646Z,63.33
2022-10-16T06:31:42.102Z,63.05
2022-10-16T06:34:11.562Z,63.03
2022-10-16T06:36:40.381Z,63.00
2022-10-16T06:39:08.188Z,63.33
2022-10-16T06:41:35.705Z,63.17
2022-10-16T06:44:03.199Z,63.13
2022-10-16T06:46:30.835Z,63.29
2022-10-16T06:48:58.313Z,62.84
2022-10-16T06:51:26.024Z,63.13
2022-10-16T06:54:04.695Z,63.18
2022-10-16T06:56:32.768Z,63.22
2022-10-16T06:59:00.384Z,63.13
2022-10-16T07:01:27.878Z,63.12
2022-10-16T07:03:55.409Z,62.91
2022-10-16T07:06:23.955Z,62.86
2022-10-16T07:08:51.425Z,63.15
2022-10-16T07:11:20.953Z,63.18
2022-10-16T07:13:52.631Z,63.04
2022-10-16T07:16:24.102Z,62.96
2022-10-16T07:18:55.146Z,63.13
2022-10-16T07:21:23.495Z,62.83
2022-10-16T07:23:52.177Z,63.06
2022-10-16T07:26:20.997Z,62.93
2022-10-16T07:28:48.587Z,62.95
2022-10-16T07:31:16.554Z,63.00
2022-10-16T07:33:45.237Z,62.75
2022-10-16T07:36:16.183Z,62.66
2022-10-16T07:38:44.139Z,62.87
2022-10-16T07:41:12.372Z,62.55
2022-10-16T07:43:41.186Z,62.48
2022-10-16T07:46:08.694Z,62.44
2022-10-16T07:48:36.237Z,62.60
2022-10-16T07:51:04.882Z,62.06
2022-10-16T07:53:32.349Z,62.57
2022-10-16T07:56:00.506Z,62.04
2022-10-16T07:58:28.643Z,62.04
2022-10-16T08:00:57.483Z,62.10
2022-10-16T08:03:25.167Z,62.04
2022-10-16T08:05:52.621Z,61.80
2022-10-16T08:08:20.292Z,62.21
2022-10-16T08:10:47.758Z,61.91
2022-10-16T08:13:16.297Z,62.09
2022-10-16T08:15:44.072Z,62.05
2022-10-16T08:18:13.194Z,62.13
2022-10-16T08:20:40.820Z,62.19
2022-10-16T08:23:08.671Z,61.79
2022-10-16T08:25:36.446Z,62.00
2022-10-16T08:28:05.484Z,61.68
2022-10-16T08:30:32.982Z,61.83
2022-10-16T08:33:00.461Z,61.79
2022-10-16T08:35:29.288Z,61.59
2022-10-16T08:37:56.734Z,61.66
2022-10-16T08:43:11.834Z,61.71
2022-10-16T08:45:46.565Z,61.77
2022-10-16T08:48:19.541Z,61.70
2022-10-16T08:50:48.297Z,61.63
2022-10-16T08:53:17.698Z,61.63
2022-10-16T08:55:46.842Z,61.78
2022-10-16T08:58:14.992Z,61.83
2022-10-16T09:00:42.766Z,61.59
2022-10-16T09:03:15.561Z,61.89
2022-10-16T09:06:05.943Z,61.72
2022-10-16T09:08:38.628Z,62.04
2022-10-16T09:11:10.039Z,61.67
2022-10-16T09:13:41.043Z,62.05
2022-10-16T09:16:15.634Z,61.81
2022-10-16T09:18:45.165Z,61.67
2022-10-16T09:21:16.281Z,61.81
2022-10-16T09:23:43.713Z,61.63
2022-10-16T09:26:12.863Z,61.75
2022-10-16T09:28:40.437Z,61.50
2022-10-16T09:31:09.886Z,61.51
2022-10-16T09:33:38.313Z,61.54
2022-10-16T09:36:06.611Z,61.28
2022-10-16T09:38:36.826Z,61.05
2022-10-16T09:41:05.591Z,61.10
2022-10-16T09:43:36.173Z,61.13
2022-10-16T09:46:04.625Z,60.98
2022-10-16T09:48:35.607Z,60.98
2022-10-16T09:51:04.704Z,60.97
2022-10-16T09:53:43.843Z,61.27
2022-10-16T09:56:14.550Z,61.02
2022-10-16T09:58:46.117Z,60.96
2022-10-16T10:01:14.970Z,61.19
2022-10-16T10:03:42.920Z,61.13
2022-10-16T10:06:19.280Z,61.29
2022-10-16T10:09:01.884Z,60.83
2022-10-16T10:11:54.315Z,60.90
2022-10-16T10:14:23.717Z,61.08
2022-10-16T10:16:51.256Z,60.93
2022-10-16T10:19:19.065Z,60.91
2022-10-16T10:21:46.532Z,60.49
2022-10-16T10:24:16.008Z,60.83
2022-10-16T10:26:48.714Z,60.97
2022-10-16T10:29:19.592Z,60.92
2022-10-16T10:31:49.224Z,60.38
2022-10-16T10:34:38.314Z,60.18
2022-10-16T10:37:08.127Z,60.73
2022-10-16T10:39:38.603Z,60.73
2022-10-16T10:42:10.877Z,60.45
2022-10-16T10:44:50.255Z,60.29
2022-10-16T10:47:22.789Z,60.33
2022-10-16T10:49:55.554Z,60.25
2022-10-16T10:52:37.289Z,60.29
2022-10-16T10:55:15.652Z,60.32
2022-10-16T10:57:47.518Z,60.04
2022-10-16T11:00:20.230Z,60.15
2022-10-16T11:02:50.053Z,60.14
2022-10-16T11:05:32.881Z,59.99
2022-10-16T11:08:01.549Z,60.43
2022-10-16T11:10:32.695Z,60.26
2022-10-16T11:13:02.075Z,60.09
2022-10-16T11:15:31.135Z,60.33
2022-10-16T11:18:01.112Z,60.15
2022-10-16T11:20:29.479Z,60.46
2022-10-16T11:22:58.542Z,60.07
2022-10-16T11:25:27.920Z,60.04
2022-10-16T11:27:59.853Z,59.96
2022-10-16T11:30:28.256Z,60.29
2022-10-16T11:33:02.998Z,60.18
2022-10-16T11:35:38.778Z,59.81
2022-10-16T11:38:06.430Z,60.18
2022-10-16T11:40:34.452Z,59.99
2022-10-16T11:43:06.264Z,59.95
2022-10-16T11:45:36.174Z,59.92
2022-10-16T11:48:06.614Z,59.98
2022-10-16T11:50:38.758Z,60.04
2022-10-16T11:53:10.697Z,59.89
2022-10-16T11:55:41.747Z,59.90
2022-10-16T11:58:18.095Z,59.78
2022-10-16T12:00:47.473Z,59.67
2022-10-16T12:03:19.917Z,59.80
2022-10-16T12:05:55.944Z,59.60
2022-10-16T12:08:23.425Z,59.72
2022-10-16T12:10:50.889Z,59.68
2022-10-16T12:13:36.279Z,59.41
2022-10-16T12:16:22.430Z,59.51
2022-10-16T12:18:50.109Z,59.60
2022-10-16T12:21:19.979Z,59.23
2022-10-16T12:23:51.198Z,59.41
2022-10-16T12:26:26.309Z,59.11
2022-10-16T12:28:55.268Z,59.18
2022-10-16T12:31:22.977Z,59.12
2022-10-16T12:33:59.971Z,59.15
2022-10-16T12:36:31.277Z,59.33
2022-10-16T12:38:58.741Z,59.06
2022-10-16T12:41:26.904Z,59.20
2022-10-16T12:43:55.806Z,59.14
2022-10-16T12:46:25.791Z,58.95
2022-10-16T12:49:06.517Z,58.97
2022-10-16T12:51:36.585Z,58.67
2022-10-16T12:54:04.340Z,58.86
2022-10-16T12:56:39.117Z,58.76
2022-10-16T12:59:11.641Z,58.82
2022-10-16T13:01:55.665Z,58.94
2022-10-16T13:04:34.561Z,58.92
2022-10-16T13:07:06.792Z,58.91
2022-10-16T13:09:42.998Z,58.61
2022-10-16T13:12:17.859Z,58.63
2022-10-16T13:15:02.791Z,58.80
2022-10-16T13:17:32.636Z,58.67
2022-10-16T13:20:05.176Z,58.70
2022-10-16T13:22:34.917Z,58.77
2022-10-16T13:25:13.113Z,58.90
2022-10-16T13:27:43.513Z,58.91
2022-10-16T13:30:15.769Z,58.92
2022-10-16T13:32:46.651Z,58.85
2022-10-16T13:35:24.395Z,58.74
2022-10-16T13:37:51.966Z,59.04
2022-10-16T13:40:21.556Z,59.21
2022-10-16T13:42:48.996Z,59.16
2022-10-16T13:45:21.686Z,58.98
2022-10-16T13:47:49.148Z,59.21
2022-10-16T13:50:17.807Z,59.19
2022-10-16T13:52:45.494Z,59.07
2022-10-16T13:55:13.625Z,58.96
2022-10-16T13:57:41.258Z,59.30
2022-10-16T14:00:25.622Z,59.23
2022-10-16T14:02:54.896Z,59.06
2022-10-16T14:05:22.347Z,59.13
2022-10-16T14:07:51.002Z,59.32
2022-10-16T14:10:23.248Z,59.17
2022-10-16T14:12:56.765Z,59.02
2022-10-16T14:15:25.623Z,59.00
2022-10-16T14:17:53.350Z,58.89
2022-10-16T14:20:20.836Z,58.97
2022-10-16T14:22:48.303Z,59.29
2022-10-16T14:25:22.871Z,58.82
2022-10-16T14:27:59.169Z,58.83
2022-10-16T14:30:28.222Z,59.10
2022-10-16T14:32:57.105Z,58.78
2022-10-16T14:35:29.463Z,58.81
2022-10-16T14:37:57.227Z,58.74
2022-10-16T14:40:25.731Z,58.69
2022-10-16T14:42:53.281Z,58.63
2022-10-16T14:45:21.801Z,58.28
2022-10-16T14:47:52.201Z,58.12
2022-10-16T14:50:19.637Z,57.93
2022-10-16T14:52:47.077Z,57.86
2022-10-16T14:55:15.064Z,57.65
2022-10-16T14:57:42.594Z,57.41
2022-10-16T15:00:15.996Z,57.60
2022-10-16T15:02:43.441Z,57.54
2022-10-16T15:05:15.434Z,57.44
2022-10-16T15:07:42.965Z,57.54
2022-10-16T15:10:10.489Z,57.47
2022-10-16T15:12:37.933Z,57.38
2022-10-16T15:15:22.052Z,57.16
2022-10-16T15:17:50.031Z,57.28
2022-10-16T15:20:18.854Z,57.34
2022-10-16T15:22:46.295Z,57.17
2022-10-16T15:25:17.452Z,57.24
2022-10-16T15:27:44.905Z,57.19
2022-10-16T15:30:13.053Z,57.21
2022-10-16T15:32:40.481Z,57.19
2022-10-16T15:35:10.074Z,57.40
2022-10-16T15:37:38.857Z,57.17
2022-10-16T15:40:07.531Z,57.39
2022-10-16T15:42:34.969Z,57.60
2022-10-16T15:45:02.400Z,57.37
2022-10-16T15:47:29.836Z,57.64
2022-10-16T15:49:57.278Z,57.93
2022-10-16T15:52:24.891Z,57.86
2022-10-16T15:54:54.393Z,58.08
2022-10-16T15:57:21.929Z,58.40
2022-10-16T15:59:49.405Z,58.39
2022-10-16T16:02:16.949Z,58.38
2022-10-16T16:04:44.993Z,58.61
2022-10-16T16:07:12.635Z,58.51
2022-10-16T16:09:40.102Z,58.73
2022-10-16T16:12:08.918Z,58.59
2022-10-16T16:14:36.366Z,58.84
2022-10-16T16:17:03.821Z,58.94
2022-10-16T16:19:32.714Z,58.91
2022-10-16T16:22:00.174Z,58.95
2022-10-16T16:24:27.585Z,59.13
2022-10-16T16:26:55.047Z,59.18
2022-10-16T16:29:23.850Z,59.11
2022-10-16T16:31:53.710Z,59.17
2022-10-16T16:34:21.430Z,59.46
2022-10-16T16:36:48.876Z,59.58
2022-10-16T16:39:16.315Z,59.56
2022-10-16T16:41:44.103Z,59.81
2022-10-16T16:44:12.060Z,59.57
2022-10-16T16:46:40.916Z,59.71
2022-10-16T16:49:08.400Z,59.85
2022-10-16T16:51:39.732Z,59.76
2022-10-16T16:54:09.007Z,59.77
2022-10-16T16:56:36.612Z,59.78
2022-10-16T16:59:04.680Z,59.83
2022-10-16T17:01:32.735Z,60.11
2022-10-16T17:04:03.051Z,60.21
2022-10-16T17:06:31.124Z,59.98
2022-10-16T17:08:59.626Z,59.77
2022-10-16T17:11:27.903Z,60.08
2022-10-16T17:13:57.094Z,60.01
2022-10-16T17:16:25.198Z,60.19
2022-10-16T17:18:53.830Z,60.25
2022-10-16T17:21:22.722Z,60.35
2022-10-16T17:23:52.870Z,60.33
2022-10-16T17:26:20.164Z,60.30
2022-10-16T17:28:47.766Z,60.13
2022-10-16T17:31:16.253Z,60.37
2022-10-16T17:33:43.819Z,60.24
2022-10-16T17:36:11.703Z,60.30
2022-10-16T17:38:40.465Z,60.40
2022-10-16T17:41:14.037Z,60.42
2022-10-16T17:43:41.505Z,60.37
2022-10-16T17:46:09.038Z,60.53
2022-10-16T17:48:38.675Z,60.30
2022-10-16T17:51:06.967Z,60.52
2022-10-16T17:53:34.487Z,60.33
2022-10-16T17:56:05.534Z,60.57
2022-10-16T17:58:33.267Z,60.42
2022-10-16T18:01:00.816Z,60.54
2022-10-16T18:03:28.302Z,60.61
2022-10-16T18:05:56.178Z,60.57
2022-10-16T18:08:26.483Z,60.51
2022-10-16T18:10:56.209Z,60.62
2022-10-16T18:13:25.003Z,60.57
2022-10-16T18:16:00.629Z,60.63
2022-10-16T18:18:29.639Z,60.53
2022-10-16T18:20:58.044Z,60.77
2022-10-16T18:23:25.501Z,60.73
2022-10-16T18:25:53.127Z,60.50
2022-10-16T18:28:20.854Z,60.77
2022-10-16T18:30:57.004Z,60.72
2022-10-16T18:33:24.472Z,60.73
2022-10-16T18:35:51.996Z,60.57
2022-10-16T18:38:21.221Z,60.95
2022-10-16T18:40:48.701Z,60.88
2022-10-16T18:43:16.146Z,60.99
2022-10-16T18:45:43.571Z,60.97
2022-10-16T18:48:12.351Z,60.70
2022-10-16T18:50:39.779Z,60.93
2022-10-16T18:53:07.260Z,60.94
2022-10-16T18:55:34.697Z,60.93
2022-10-16T18:58:02.174Z,60.67
2022-10-16T19:00:29.604Z,61.08
2022-10-16T19:02:57.040Z,60.83
2022-10-16T19:05:25.859Z,60.76
2022-10-16T19:07:53.466Z,60.77
2022-10-16T19:10:20.925Z,61.07
2022-10-16T19:12:48.353Z,61.09
2022-10-16T19:15:15.981Z,61.03
2022-10-16T19:17:43.475Z,61.21
2022-10-16T19:20:11.386Z,61.13
2022-10-16T19:22:54.002Z,61.06
2022-10-16T19:25:22.849Z,61.14
2022-10-16T19:27:50.327Z,61.05
2022-10-16T19:30:18.075Z,61.05
2022-10-16T19:32:46.279Z,61.06
2022-10-16T19:35:13.782Z,61.31
2022-10-16T19:37:42.574Z,61.23
2022-10-16T19:40:11.215Z,61.31
2022-10-16T19:42:43.418Z,60.97
2022-10-16T19:45:11.784Z,61.00
2022-10-16T19:47:39.254Z,61.24
2022-10-16T19:50:09.722Z,61.19
2022-10-16T19:52:37.940Z,61.17
2022-10-16T19:55:07.841Z,61.22
2022-10-16T20:00:09.692Z,61.21
2022-10-16T20:02:37.178Z,61.28
2022-10-16T20:05:05.011Z,61.37
2022-10-16T20:07:34.615Z,61.27
2022-10-16T20:10:02.454Z,61.53
2022-10-16T20:12:31.224Z,61.19
2022-10-16T20:14:58.657Z,61.28
2022-10-16T20:17:26.620Z,61.19
2022-10-16T20:19:54.265Z,61.47
2022-10-16T20:22:21.698Z,61.21
2022-10-16T20:24:49.151Z,61.21
2022-10-16T20:27:16.604Z,61.40
2022-10-16T20:29:45.383Z,61.55
2022-10-16T20:32:12.893Z,61.55
2022-10-16T20:34:40.303Z,61.25
2022-10-16T20:37:07.761Z,61.41
2022-10-16T20:39:35.192Z,61.46
2022-10-16T20:42:02.641Z,61.44
2022-10-16T20:44:30.126Z,61.51
2022-10-16T20:46:58.893Z,61.39
2022-10-16T20:49:39.877Z,61.32
2022-10-16T20:52:08.379Z,61.45
2022-10-16T20:54:35.843Z,61.41
2022-10-16T20:57:03.270Z,61.55
2022-10-16T20:59:30.702Z,61.65
2022-10-16T21:01:59.582Z,61.60
2022-10-16T21:04:27.249Z,61.60
2022-10-16T21:06:54.690Z,61.61
2022-10-16T21:09:22.126Z,61.65
2022-10-16T21:11:49.586Z,61.53
2022-10-16T21:14:17.087Z,61.67
2022-10-16T21:16:44.540Z,61.59
2022-10-16T21:19:13.429Z,61.51
2022-10-16T21:21:40.878Z,61.59
2022-10-16T21:24:12.081Z,61.54
2022-10-16T21:26:42.542Z,61.69
2022-10-16T21:29:10.052Z,61.70
2022-10-16T21:31:37.541Z,61.67
2022-10-16T21:34:04.975Z,61.68
2022-10-16T21:36:34.686Z,61.85
2022-10-16T21:39:02.205Z,61.66
2022-10-16T21:41:29.893Z,61.66
2022-10-16T21:43:57.749Z,61.80
2022-10-16T21:46:26.056Z,61.80
2022-10-16T21:48:53.621Z,61.75
2022-10-16T21:51:21.126Z,62.06
2022-10-16T21:53:49.870Z,61.89
2022-10-16T21:56:18.194Z,62.05
2022-10-16T21:58:45.824Z,62.02
2022-10-16T22:01:15.321Z,61.99
2022-10-16T22:03:42.940Z,62.12
2022-10-16T22:06:10.754Z,61.97
2022-10-16T22:08:38.945Z,62.04
2022-10-16T22:11:08.859Z,62.27
2022-10-16T22:13:36.316Z,61.88
2022-10-16T22:16:03.853Z,62.15
2022-10-16T22:18:31.363Z,62.01
2022-10-16T22:20:58.946Z,62.13
2022-10-16T22:23:26.440Z,62.26
2022-10-16T22:25:53.884Z,62.11
2022-10-16T22:28:22.715Z,62.24
2022-10-16T22:30:50.208Z,62.20
2022-10-16T22:33:17.644Z,61.96
2022-10-16T22:35:45.106Z,62.12
2022-10-16T22:38:12.540Z,62.23
2022-10-16T22:40:40.266Z,62.33
2022-10-16T22:43:07.694Z,62.28
2022-10-16T22:45:36.858Z,62.32
2022-10-16T22:48:04.704Z,62.29
2022-10-16T22:50:32.144Z,62.29
2022-10-16T22:52:59.590Z,62.09
2022-10-16T22:55:27.036Z,62.50
2022-10-16T22:57:56.664Z,62.42
2022-10-16T23:00:24.206Z,62.33
2022-10-16T23:02:53.028Z,62.13
2022-10-16T23:05:20.496Z,62.36
2022-10-16T23:07:49.666Z,62.44
2022-10-16T23:10:17.417Z,62.23
2022-10-16T23:12:46.224Z,62.44
2022-10-16T23:15:13.951Z,62.53
2022-10-16T23:17:41.421Z,62.47
2022-10-16T23:20:11.520Z,62.38
2022-10-16T23:22:38.798Z,62.32
2022-10-16T23:25:08.918Z,62.26
2022-10-16T23:27:36.201Z,62.36
2022-10-16T23:30:03.802Z,62.59
2022-10-16T23:32:31.258Z,62.29
2022-10-16T23:34:58.704Z,62.24
2022-10-16T23:37:27.533Z,62.34
2022-10-16T23:39:54.994Z,62.23
2022-10-16T23:42:22.431Z,62.25
2022-10-16T23:44:49.870Z,62.59
2022-10-16T23:47:17.305Z,62.19
2022-10-16T23:49:44.740Z,62.27
2022-10-16T23:52:12.203Z,62.26
2022-10-16T23:54:40.957Z,62.33
2022-10-16T23:57:08.414Z,62.22
2022-10-16T23:59:35.844Z,62.33
